createdAt,value
2023-02-23T00:59:43.109Z,92339.00
2023-02-23T01:00:43.154Z,92337.00
2023-02-23T01:01:43.503Z,92337.00
2023-02-23T01:02:43.325Z,92339.00
2023-02-23T01:03:43.341Z,92339.00
2023-02-23T01:04:43.402Z,92339.00
2023-02-23T01:05:43.462Z,92343.00
2023-02-23T01:06:43.525Z,92339.00
2023-02-23T01:07:43.570Z,92341.00
2023-02-23T01:08:43.634Z,92341.00
2023-02-23T01:09:43.694Z,92339.00
2023-02-23T01:10:43.759Z,92341.00
2023-02-23T01:11:43.819Z,92341.00
2023-02-23T01:12:43.884Z,92343.00
2023-02-23T01:13:43.940Z,92341.00
2023-02-23T01:14:43.991Z,92341.00
2023-02-23T01:15:44.228Z,92343.00
2023-02-23T01:16:44.113Z,92341.00
2023-02-23T01:17:44.158Z,92343.00
2023-02-23T01:18:44.211Z,92343.00
2023-02-23T01:19:44.275Z,92343.00
2023-02-23T01:20:44.341Z,92343.00
2023-02-23T01:21:44.392Z,92345.00
2023-02-23T01:22:44.431Z,92343.00
2023-02-23T01:23:44.503Z,92343.00
2023-02-23T01:24:44.557Z,92343.00
2023-02-23T01:25:44.612Z,92345.00
2023-02-23T01:26:44.674Z,92345.00
2023-02-23T01:27:44.723Z,92345.00
2023-02-23T01:28:44.796Z,92346.00
2023-02-23T01:29:44.839Z,92346.00
2023-02-23T01:30:44.972Z,92346.00
2023-02-23T01:31:45.102Z,92346.00
2023-02-23T01:32:45.035Z,92348.00
2023-02-23T01:33:45.094Z,92348.00
2023-02-23T01:34:45.137Z,92352.00
2023-02-23T01:35:45.195Z,92352.00
2023-02-23T03:50:53.167Z,92346.00
2023-02-23T03:51:53.190Z,92346.00
2023-02-23T03:52:53.261Z,92348.00
2023-02-23T03:53:53.273Z,92348.00
2023-02-23T03:54:53.317Z,92350.00
2023-02-23T03:55:53.351Z,92346.00
2023-02-23T03:56:53.376Z,92346.00
2023-02-23T03:57:53.426Z,92348.00
2023-02-23T03:58:53.476Z,92348.00
2023-02-23T03:59:53.533Z,92346.00
2023-02-23T04:00:53.573Z,92345.00
2023-02-23T04:01:53.637Z,92343.00
2023-02-23T04:02:53.664Z,92346.00
2023-02-23T04:03:53.773Z,92346.00
2023-02-23T04:04:53.775Z,92345.00
2023-02-23T04:05:53.834Z,92345.00
2023-02-23T04:06:53.964Z,92345.00
2023-02-23T04:07:53.952Z,92346.00
2023-02-23T04:08:54.010Z,92348.00
2023-02-23T04:09:54.068Z,92345.00
2023-02-23T04:10:54.133Z,92348.00
2023-02-23T04:11:54.188Z,92348.00
2023-02-23T04:12:54.224Z,92346.00
2023-02-23T04:13:54.284Z,92346.00
2023-02-23T04:14:54.333Z,92350.00
2023-02-23T04:15:54.391Z,92348.00
2023-02-23T04:16:54.438Z,92350.00
2023-02-23T04:17:54.491Z,92348.00
2023-02-23T04:18:54.541Z,92348.00
2023-02-23T04:19:54.592Z,92346.00
2023-02-23T04:20:54.726Z,92346.00
2023-02-23T04:21:54.705Z,92348.00
2023-02-23T04:22:54.755Z,92345.00
2023-02-23T04:23:54.809Z,92346.00
2023-02-23T04:24:54.864Z,92345.00
2023-02-23T04:25:54.922Z,92341.00
2023-02-23T04:26:54.966Z,92343.00
2023-02-23T04:27:55.025Z,92343.00
2023-02-23T04:28:55.065Z,92343.00
2023-02-23T04:29:55.123Z,92343.00
2023-02-23T04:30:55.219Z,92346.00
2023-02-23T04:31:55.317Z,92346.00
2023-02-23T04:32:55.264Z,92348.00
2023-02-23T04:33:55.309Z,92346.00
2023-02-23T04:34:55.353Z,92348.00
2023-02-23T04:35:55.429Z,92346.00
2023-02-23T04:36:55.450Z,92345.00
2023-02-23T04:37:55.498Z,92345.00
2023-02-23T04:38:55.545Z,92343.00
2023-02-23T04:39:55.591Z,92345.00
2023-02-23T04:40:55.640Z,92346.00
2023-02-23T04:41:55.684Z,92348.00
2023-02-23T04:42:55.721Z,92346.00
2023-02-23T04:43:55.768Z,92346.00
2023-02-23T04:44:55.813Z,92348.00
2023-02-23T04:45:55.929Z,92346.00
2023-02-23T04:46:55.897Z,92346.00
2023-02-23T04:47:55.937Z,92350.00
2023-02-23T04:48:55.977Z,92348.00
2023-02-23T04:49:56.026Z,92348.00
2023-02-23T04:50:56.078Z,92350.00
2023-02-23T04:51:56.101Z,92348.00
2023-02-23T04:52:56.162Z,92352.00
2023-02-23T04:53:56.194Z,92352.00
2023-02-23T04:54:56.249Z,92352.00
2023-02-23T04:55:56.296Z,92348.00
2023-02-23T04:56:56.325Z,92350.00
2023-02-23T04:57:56.371Z,92352.00
2023-02-23T04:58:56.413Z,92350.00
2023-02-23T04:59:56.460Z,92348.00
2023-02-23T05:00:56.569Z,92354.00
2023-02-23T05:01:56.549Z,92350.00
2023-02-23T05:02:56.599Z,92350.00
2023-02-23T05:03:56.629Z,92350.00
2023-02-23T05:04:56.686Z,92350.00
2023-02-23T05:05:56.764Z,92348.00
2023-02-23T05:06:56.749Z,92348.00
2023-02-23T05:07:56.794Z,92346.00
2023-02-23T05:08:56.828Z,92345.00
2023-02-23T08:03:04.145Z,92419.00
2023-02-23T10:07:04.681Z,92364.00
2023-02-23T11:15:12.896Z,92302.00
2023-02-23T12:00:04.216Z,92239.00
2023-02-23T12:03:01.478Z,92235.00
2023-02-23T12:04:01.425Z,92231.00
2023-02-23T12:05:01.686Z,92233.00
2023-02-23T12:07:01.333Z,92227.00
2023-02-23T12:08:01.362Z,92225.00
2023-02-23T12:09:01.290Z,92225.00
2023-02-23T12:10:01.255Z,92225.00
2023-02-23T12:11:01.225Z,92225.00
2023-02-23T12:12:01.202Z,92223.00
2023-02-23T12:13:01.181Z,92223.00
2023-02-23T12:14:01.149Z,92221.00
2023-02-23T12:15:01.146Z,92219.00
2023-02-23T12:16:01.123Z,92213.00
2023-02-23T12:17:01.075Z,92213.00
2023-02-23T12:18:01.056Z,92213.00
2023-02-23T12:19:01.022Z,92211.00
2023-02-23T12:20:00.987Z,92213.00
2023-02-23T12:21:00.970Z,92213.00
2023-02-23T12:22:00.956Z,92211.00
2023-02-23T12:23:00.936Z,92208.00
2023-02-23T12:24:00.900Z,92204.00
2023-02-23T12:25:00.884Z,92206.00
2023-02-23T12:26:00.864Z,92204.00
2023-02-23T12:27:00.812Z,92204.00
2023-02-23T12:28:10.345Z,92202.00
2023-02-23T12:30:01.097Z,92202.00
2023-02-23T12:31:00.818Z,92204.00
2023-02-23T12:32:00.796Z,92200.00
2023-02-23T12:33:00.680Z,92200.00
2023-02-23T12:34:00.651Z,92198.00
2023-02-23T12:35:00.634Z,92194.00
2023-02-23T12:36:00.599Z,92196.00
2023-02-23T12:37:00.615Z,92196.00
2023-02-23T14:22:03.137Z,92164.00
2023-02-23T14:23:03.181Z,92164.00
2023-02-23T14:24:03.218Z,92166.00
2023-02-23T14:25:03.336Z,92164.00
2023-02-23T14:26:03.312Z,92162.00
2023-02-23T14:27:03.365Z,92162.00
2023-02-23T14:28:03.401Z,92162.00
2023-02-23T14:29:03.436Z,92162.00
2023-02-23T14:30:03.476Z,92164.00
2023-02-23T14:31:03.614Z,92159.00
2023-02-23T14:32:03.704Z,92164.00
2023-02-23T14:33:13.169Z,92160.00
2023-02-23T14:34:04.584Z,92164.00
2023-02-23T14:35:03.566Z,92162.00
2023-02-23T14:36:03.533Z,92164.00
2023-02-23T14:37:03.510Z,92162.00
2023-02-23T14:38:03.515Z,92164.00
2023-02-23T14:39:03.491Z,92164.00
2023-02-23T14:40:03.458Z,92164.00
2023-02-23T14:41:03.479Z,92162.00
2023-02-23T14:42:03.416Z,92162.00
2023-02-23T14:43:03.404Z,92164.00
2023-02-23T14:44:03.381Z,92164.00
2023-02-23T14:45:03.354Z,92164.00
2023-02-23T14:46:03.475Z,92164.00
2023-02-23T14:47:03.346Z,92166.00
2023-02-23T14:48:03.305Z,92166.00
2023-02-23T14:49:03.320Z,92166.00
2023-02-23T14:50:03.318Z,92168.00
2023-02-23T14:51:14.976Z,92168.00
2023-02-23T14:52:04.345Z,92170.00
2023-02-23T14:53:03.321Z,92168.00
2023-02-23T14:54:03.410Z,92168.00
2023-02-23T14:55:03.305Z,92170.00
2023-02-23T14:56:03.273Z,92170.00
2023-02-23T14:57:03.265Z,92170.00
2023-02-23T14:58:03.241Z,92168.00
2023-02-23T14:59:03.206Z,92170.00
2023-02-23T15:00:03.195Z,92168.00
2023-02-23T15:01:03.245Z,92164.00
2023-02-23T15:02:03.413Z,92168.00
2023-02-23T15:03:03.320Z,92166.00
2023-02-23T15:04:03.372Z,92164.00
2023-02-23T15:05:03.412Z,92164.00
2023-02-23T15:06:03.525Z,92170.00
2023-02-23T16:00:05.960Z,92168.00
2023-02-23T16:01:06.290Z,92168.00
2023-02-23T16:02:06.058Z,92170.00
2023-02-23T16:03:06.123Z,92166.00
2023-02-23T16:04:06.191Z,92170.00
2023-02-23T16:05:06.204Z,92170.00
2023-02-23T16:06:06.256Z,92170.00
2023-02-23T16:07:06.301Z,92172.00
2023-02-23T16:08:06.347Z,92174.00
2023-02-23T16:09:06.405Z,92174.00
2023-02-23T16:10:06.454Z,92178.00
2023-02-23T16:11:06.506Z,92176.00
2023-02-23T16:12:06.564Z,92180.00
2023-02-23T16:13:06.614Z,92176.00
2023-02-23T16:14:06.659Z,92178.00
2023-02-23T16:15:06.694Z,92176.00
2023-02-23T16:16:06.784Z,92178.00
2023-02-23T16:17:11.831Z,92176.00
2023-02-23T16:31:06.594Z,92186.00
2023-02-23T16:32:06.701Z,92186.00
2023-02-23T16:34:06.475Z,92186.00
2023-02-23T16:35:06.486Z,92180.00
2023-02-23T16:36:06.544Z,92180.00
2023-02-23T16:37:06.607Z,92182.00
2023-02-23T16:38:06.658Z,92184.00
2023-02-23T16:39:06.684Z,92180.00
2023-02-23T16:40:06.748Z,92180.00
2023-02-23T16:41:06.811Z,92184.00
2023-02-23T16:42:06.864Z,92184.00
2023-02-23T16:43:06.939Z,92186.00
2023-02-23T16:44:06.941Z,92188.00
2023-02-23T16:45:06.985Z,92188.00
2023-02-23T16:46:07.259Z,92192.00
2023-02-23T16:47:07.087Z,92190.00
2023-02-23T16:48:07.143Z,92194.00
2023-02-23T16:49:07.200Z,92188.00
2023-02-23T16:52:07.285Z,92190.00
2023-02-23T16:53:07.315Z,92190.00
2023-02-23T16:54:07.359Z,92188.00
2023-02-23T16:55:07.385Z,92190.00
2023-02-23T16:56:07.418Z,92190.00
2023-02-23T16:57:07.474Z,92190.00
2023-02-23T16:58:07.500Z,92190.00
2023-02-23T16:59:07.545Z,92190.00
2023-02-23T17:00:07.594Z,92194.00
2023-02-23T17:01:07.610Z,92196.00
2023-02-23T17:02:07.639Z,92194.00
2023-02-23T17:03:07.675Z,92198.00
2023-02-23T17:04:07.732Z,92200.00
2023-02-23T17:05:07.706Z,92202.00
2023-02-23T17:06:07.726Z,92206.00
2023-02-23T17:07:07.756Z,92208.00
2023-02-23T17:08:07.779Z,92206.00
2023-02-23T17:09:07.829Z,92210.00
2023-02-23T17:10:07.865Z,92211.00
2023-02-23T17:11:07.890Z,92213.00
2023-02-23T17:12:07.943Z,92210.00
2023-02-23T17:13:08.016Z,92210.00
2023-02-23T17:14:08.048Z,92211.00
2023-02-23T17:15:08.052Z,92211.00
2023-02-23T17:16:08.060Z,92213.00
2023-02-23T17:17:08.065Z,92215.00
2023-02-23T17:18:08.046Z,92217.00
2023-02-23T17:19:08.039Z,92217.00
2023-02-23T17:20:08.025Z,92213.00
2023-02-23T17:21:08.021Z,92217.00
2023-02-23T17:22:08.026Z,92215.00
2023-02-23T17:23:08.019Z,92215.00
2023-02-23T17:24:08.028Z,92219.00
2023-02-23T17:25:08.048Z,92221.00
2023-02-23T17:26:08.090Z,92221.00
2023-02-23T17:27:08.144Z,92225.00
2023-02-23T17:28:08.163Z,92223.00
2023-02-23T18:30:08.867Z,92266.00
2023-02-23T18:31:08.894Z,92266.00
2023-02-23T18:32:09.157Z,92268.00
2023-02-23T18:33:08.963Z,92268.00
2023-02-23T18:34:08.816Z,92272.00
2023-02-23T18:35:08.817Z,92272.00
2023-02-23T18:36:08.790Z,92272.00
2023-02-23T18:37:08.785Z,92272.00
2023-02-23T18:38:10.492Z,92272.00
2023-02-23T18:39:08.883Z,92274.00
2023-02-23T18:40:08.859Z,92274.00
2023-02-23T18:41:08.836Z,92276.00
2023-02-23T18:42:08.836Z,92274.00
2023-02-23T18:43:08.829Z,92276.00
2023-02-23T18:44:08.837Z,92278.00
2023-02-23T18:45:08.806Z,92278.00
2023-02-23T18:46:08.872Z,92280.00
2023-02-23T18:47:08.816Z,92280.00
2023-02-23T18:48:08.796Z,92280.00
2023-02-23T18:49:08.796Z,92278.00
2023-02-23T18:50:08.780Z,92278.00
2023-02-23T18:51:08.775Z,92280.00
2023-02-23T18:52:08.766Z,92282.00
2023-02-23T18:53:08.766Z,92284.00
2023-02-23T18:54:08.747Z,92286.00
2023-02-23T18:55:08.760Z,92282.00
2023-02-23T18:56:08.788Z,92286.00
2023-02-23T18:57:08.763Z,92286.00
2023-02-23T18:58:08.752Z,92290.00
2023-02-23T18:59:08.745Z,92290.00
2023-02-23T19:00:08.710Z,92294.00
2023-02-23T19:01:08.737Z,92294.00
2023-02-23T19:02:08.714Z,92294.00
2023-02-23T19:03:08.732Z,92298.00
2023-02-23T19:04:08.731Z,92298.00
2023-02-23T19:05:08.811Z,92300.00
2023-02-23T19:06:08.711Z,92296.00
2023-02-23T19:07:08.698Z,92300.00
2023-02-23T19:08:08.709Z,92298.00
2023-02-23T19:09:08.704Z,92300.00
2023-02-23T19:10:08.692Z,92304.00
2023-02-23T19:11:08.683Z,92302.00
2023-02-23T19:12:08.697Z,92306.00
2023-02-23T19:13:08.660Z,92304.00
2023-02-23T19:14:08.644Z,92308.00
2023-02-23T19:15:08.624Z,92306.00
2023-02-23T19:16:08.679Z,92310.00
2023-02-23T19:17:08.607Z,92310.00
2023-02-23T19:18:08.604Z,92310.00
2023-02-23T19:19:08.584Z,92319.00
2023-02-23T19:20:08.580Z,92319.00
2023-02-23T19:21:08.569Z,92312.00
2023-02-23T19:22:08.568Z,92321.00
2023-02-23T19:23:08.556Z,92321.00
2023-02-23T19:24:08.571Z,92323.00
2023-02-23T19:25:08.534Z,92325.00
2023-02-23T19:27:08.531Z,92325.00
2023-02-23T19:28:08.515Z,92323.00
2023-02-23T19:29:08.505Z,92325.00
2023-02-23T19:30:08.501Z,92325.00
2023-02-23T19:31:08.537Z,92327.00
2023-02-23T19:32:08.752Z,92327.00
2023-02-23T19:33:08.575Z,92329.00
2023-02-23T20:28:08.033Z,92374.00
2023-02-23T20:29:08.031Z,92376.00
2023-02-23T20:30:08.020Z,92376.00
2023-02-23T20:31:08.066Z,92376.00
2023-02-23T20:32:08.226Z,92378.00
2023-02-23T20:33:08.003Z,92380.00
2023-02-23T20:34:07.995Z,92380.00
2023-02-23T20:35:07.977Z,92376.00
2023-02-23T20:36:07.977Z,92376.00
2023-02-23T20:37:07.991Z,92376.00
2023-02-23T20:38:07.985Z,92376.00
2023-02-23T20:39:07.965Z,92380.00
2023-02-23T20:40:07.959Z,92378.00
2023-02-23T20:41:07.966Z,92380.00
2023-02-23T20:42:07.941Z,92380.00
2023-02-23T20:43:07.937Z,92380.00
2023-02-23T20:44:07.930Z,92380.00
2023-02-23T20:45:07.923Z,92380.00
2023-02-23T20:46:07.952Z,92374.00
2023-02-23T20:47:07.912Z,92378.00
2023-02-23T20:48:07.909Z,92384.00
2023-02-23T20:49:07.955Z,92384.00
2023-02-23T20:50:07.904Z,92378.00
2023-02-23T20:51:07.908Z,92380.00
2023-02-23T20:52:07.910Z,92380.00
2023-02-23T20:53:07.909Z,92380.00
2023-02-23T20:54:07.904Z,92382.00
2023-02-23T20:55:07.887Z,92382.00
2023-02-23T20:56:07.906Z,92380.00
2023-02-23T20:57:07.932Z,92382.00
2023-02-23T20:58:07.880Z,92380.00
2023-02-23T20:59:07.889Z,92380.00
2023-02-23T21:00:07.879Z,92380.00
2023-02-23T21:01:07.888Z,92380.00
2023-02-23T21:02:07.870Z,92382.00
2023-02-23T21:03:07.872Z,92380.00
2023-02-23T21:04:07.942Z,92380.00
2023-02-23T21:05:07.885Z,92382.00
2023-02-23T21:06:07.886Z,92380.00
2023-02-23T21:07:07.891Z,92380.00
2023-02-23T21:08:07.884Z,92378.00
2023-02-23T21:09:07.890Z,92378.00
2023-02-23T21:10:07.893Z,92378.00
2023-02-23T21:11:08.392Z,92378.00
2023-02-23T21:12:07.885Z,92380.00
2023-02-23T21:13:07.884Z,92378.00
2023-02-23T21:14:07.891Z,92378.00
2023-02-23T21:15:07.889Z,92380.00
2023-02-23T21:16:07.962Z,92382.00
2023-02-23T21:17:07.890Z,92382.00
2023-02-23T21:18:07.894Z,92380.00
2023-02-23T21:19:07.930Z,92382.00
2023-02-23T21:20:07.886Z,92382.00
2023-02-23T21:21:07.884Z,92380.00
2023-02-23T21:22:07.869Z,92380.00
2023-02-23T21:23:07.882Z,92380.00
2023-02-23T21:24:07.872Z,92380.00
2023-02-23T21:25:07.893Z,92380.00
2023-02-23T21:26:07.885Z,92376.00
2023-02-23T21:27:07.876Z,92378.00
2023-02-23T21:28:07.870Z,92378.00
2023-02-23T21:29:07.880Z,92376.00
2023-02-23T21:30:10.760Z,92376.00
2023-02-23T21:31:07.874Z,92376.00
2023-02-23T21:32:07.914Z,92376.00
2023-02-23T21:33:07.914Z,92376.00
2023-02-23T21:34:07.828Z,92374.00
2023-02-23T21:35:07.821Z,92378.00
2023-02-23T21:36:07.794Z,92374.00
2023-02-23T21:37:07.781Z,92374.00
2023-02-23T21:38:07.773Z,92374.00
2023-02-23T21:39:07.766Z,92372.00
2023-02-23T21:40:08.751Z,92372.00
2023-02-23T21:41:07.740Z,92372.00
2023-02-23T21:42:07.733Z,92370.00
2023-02-23T21:43:07.724Z,92368.00
2023-02-23T21:44:07.718Z,92368.00
2023-02-23T21:45:07.701Z,92368.00
2023-02-23T21:46:07.692Z,92366.00
2023-02-23T21:47:07.673Z,92366.00
2023-02-23T21:48:07.658Z,92366.00
2023-02-23T21:49:07.649Z,92366.00
2023-02-23T21:50:07.636Z,92366.00
2023-02-23T21:51:07.634Z,92364.00
2023-02-23T21:52:07.609Z,92364.00
2023-02-23T21:53:07.596Z,92364.00
2023-02-23T21:54:07.593Z,92364.00
2023-02-23T21:55:13.267Z,92366.00
2023-02-23T21:56:08.563Z,92368.00
2023-02-23T21:57:07.547Z,92370.00
2023-02-23T21:58:07.529Z,92370.00
2023-02-23T21:59:07.521Z,92370.00
2023-02-23T22:00:07.489Z,92370.00
2023-02-23T22:01:07.457Z,92370.00
2023-02-23T22:02:07.512Z,92370.00
2023-02-23T22:03:07.633Z,92370.00
2023-02-23T22:04:07.399Z,92370.00
2023-02-23T22:05:07.386Z,92370.00
2023-02-23T22:06:07.361Z,92370.00
2023-02-23T22:07:07.360Z,92368.00
2023-02-23T22:08:07.339Z,92368.00
2023-02-23T22:09:07.317Z,92368.00
2023-02-23T22:10:07.309Z,92368.00
2023-02-23T22:11:07.299Z,92368.00
2023-02-23T22:12:07.280Z,92368.00
2023-02-23T22:13:07.259Z,92366.00
2023-02-23T22:14:07.252Z,92366.00
2023-02-23T22:15:07.225Z,92366.00
2023-02-23T22:16:07.277Z,92364.00
2023-02-23T22:17:07.202Z,92364.00
2023-02-23T22:18:07.189Z,92358.00
2023-02-23T22:19:07.247Z,92358.00
2023-02-23T22:20:07.150Z,92356.00
2023-02-23T22:21:07.134Z,92354.00
2023-02-23T22:22:07.127Z,92354.00
2023-02-23T22:23:07.118Z,92354.00
2023-02-23T22:24:07.093Z,92354.00
2023-02-23T22:25:07.072Z,92352.00
2023-02-23T22:26:07.050Z,92352.00
2023-02-23T22:27:07.046Z,92352.00
2023-02-23T22:28:07.045Z,92354.00
2023-02-23T22:29:07.059Z,92352.00
2023-02-23T22:30:07.051Z,92348.00
2023-02-23T22:31:07.205Z,92350.00
2023-02-23T22:32:07.161Z,92352.00
2023-02-23T22:33:07.240Z,92350.00
2023-02-23T22:34:07.045Z,92352.00
2023-02-23T22:35:07.043Z,92348.00
2023-02-23T22:36:07.049Z,92352.00
2023-02-23T22:37:07.047Z,92345.00
2023-02-23T22:38:07.045Z,92346.00
2023-02-23T22:39:07.075Z,92345.00
2023-02-23T22:40:07.053Z,92343.00
2023-02-23T22:41:07.066Z,92343.00
2023-02-23T22:42:07.061Z,92339.00
2023-02-23T22:43:07.060Z,92341.00
2023-02-23T22:44:07.065Z,92339.00
2023-02-23T22:45:07.072Z,92341.00
2023-02-23T22:46:07.075Z,92339.00
2023-02-23T22:47:07.167Z,92339.00
2023-02-23T22:48:07.073Z,92341.00
2023-02-23T22:49:07.078Z,92341.00
2023-02-23T22:50:07.095Z,92341.00
2023-02-23T22:51:07.084Z,92341.00
2023-02-23T22:52:07.081Z,92343.00
2023-02-23T22:53:07.082Z,92341.00
2023-02-23T22:54:07.083Z,92346.00
2023-02-23T22:55:07.084Z,92345.00
2023-02-23T22:56:07.099Z,92345.00
2023-02-23T22:57:07.093Z,92346.00
2023-02-23T22:58:07.085Z,92346.00
2023-02-23T22:59:07.092Z,92346.00
2023-02-23T23:00:07.087Z,92345.00
2023-02-23T23:01:07.098Z,92343.00
2023-02-23T23:02:07.098Z,92341.00
2023-02-23T23:03:07.155Z,92343.00
2023-02-23T23:04:07.123Z,92343.00
2023-02-23T23:05:07.114Z,92339.00
2023-02-23T23:06:07.102Z,92339.00
2023-02-23T23:07:07.099Z,92339.00
2023-02-23T23:08:07.100Z,92335.00
2023-02-23T23:09:07.107Z,92337.00
2023-02-23T23:10:07.121Z,92335.00
2023-02-23T23:11:07.126Z,92335.00
2023-02-23T23:12:07.141Z,92333.00
2023-02-23T23:13:07.147Z,92337.00
2023-02-23T23:14:07.147Z,92333.00
2023-02-23T23:15:07.161Z,92339.00
2023-02-23T23:16:09.233Z,92335.00
2023-02-23T23:17:07.197Z,92335.00
2023-02-23T23:18:07.124Z,92333.00
2023-02-23T23:19:07.110Z,92333.00
2023-02-23T23:20:07.105Z,92333.00
2023-02-23T23:21:07.059Z,92337.00
2023-02-23T23:22:07.046Z,92335.00
2023-02-23T23:23:07.053Z,92335.00
2023-02-23T23:24:06.991Z,92335.00
2023-02-23T23:25:06.968Z,92333.00
2023-02-23T23:26:06.954Z,92329.00
2023-02-23T23:27:06.932Z,92327.00
2023-02-23T23:28:06.919Z,92327.00
2023-02-23T23:29:06.898Z,92327.00
2023-02-23T23:30:06.885Z,92331.00
2023-02-23T23:31:06.901Z,92331.00
2023-02-23T23:32:07.018Z,92327.00
2023-02-23T23:33:07.039Z,92329.00
2023-02-23T23:34:06.849Z,92331.00
2023-02-23T23:35:06.832Z,92327.00
2023-02-23T23:36:06.816Z,92329.00
2023-02-23T23:37:06.811Z,92329.00
2023-02-23T23:38:06.781Z,92329.00
2023-02-23T23:39:06.759Z,92331.00
2023-02-23T23:40:06.743Z,92331.00
2023-02-23T23:41:06.721Z,92327.00
2023-02-23T23:42:06.707Z,92327.00
2023-02-23T23:43:06.682Z,92325.00
2023-02-23T23:44:06.679Z,92325.00
2023-02-23T23:45:06.666Z,92323.00
2023-02-23T23:46:06.686Z,92323.00
2023-02-23T23:47:06.653Z,92321.00
2023-02-23T23:48:06.646Z,92312.00
2023-02-23T23:49:06.628Z,92319.00
2023-02-23T23:50:06.621Z,92319.00
2023-02-23T23:51:06.615Z,92319.00
2023-02-23T23:52:06.607Z,92321.00
2023-02-23T23:58:06.504Z,92321.00
2023-02-23T23:59:06.486Z,92319.00
